sensor_id;sensor_type;location;lat;lon;timestamp;P1;durP1;ratioP1;P2;durP2;ratioP2
22904;SDS011;11619;50.140;8.518;2024-02-21T00:01:15;16.85;;;6.25;;
22904;SDS011;11619;50.140;8.518;2024-02-21T00:03:43;15.70;;;5.45;;
22904;SDS011;11619;50.140;8.518;2024-02-21T00:06:09;15.82;;;6.43;;
22904;SDS011;11619;50.140;8.518;2024-02-21T00:08:36;12.35;;;6.25;;
22904;SDS011;11619;50.140;8.518;2024-02-21T00:11:03;18.88;;;6.30;;
22904;SDS011;11619;50.140;8.518;2024-02-21T00:13:30;17.30;;;6.45;;
22904;SDS011;11619;50.140;8.518;2024-02-21T00:16:00;17.95;;;6.78;;
22904;SDS011;11619;50.140;8.518;2024-02-21T00:18:27;18.23;;;6.97;;
22904;SDS011;11619;50.140;8.518;2024-02-21T00:20:56;15.85;;;6.55;;
22904;SDS011;11619;50.140;8.518;2024-02-21T00:23:22;19.02;;;6.15;;
22904;SDS011;11619;50.140;8.518;2024-02-21T00:25:49;21.25;;;7.15;;
22904;SDS011;11619;50.140;8.518;2024-02-21T00:28:21;17.52;;;7.03;;
22904;SDS011;11619;50.140;8.518;2024-02-21T00:31:04;18.23;;;6.40;;
22904;SDS011;11619;50.140;8.518;2024-02-21T00:33:53;19.80;;;6.25;;
22904;SDS011;11619;50.140;8.518;2024-02-21T00:36:20;19.30;;;6.43;;
22904;SDS011;11619;50.140;8.518;2024-02-21T00:38:52;16.02;;;6.40;;
22904;SDS011;11619;50.140;8.518;2024-02-21T00:41:19;14.57;;;5.57;;
22904;SDS011;11619;50.140;8.518;2024-02-21T00:43:45;13.48;;;6.50;;
22904;SDS011;11619;50.140;8.518;2024-02-21T00:46:14;18.75;;;6.68;;
22904;SDS011;11619;50.140;8.518;2024-02-21T00:48:41;15.48;;;6.43;;
22904;SDS011;11619;50.140;8.518;2024-02-21T00:51:07;14.48;;;6.30;;
22904;SDS011;11619;50.140;8.518;2024-02-21T00:53:34;15.68;;;7.30;;
22904;SDS011;11619;50.140;8.518;2024-02-21T00:56:07;17.35;;;6.82;;
22904;SDS011;11619;50.140;8.518;2024-02-21T00:58:33;13.68;;;6.78;;
22904;SDS011;11619;50.140;8.518;2024-02-21T01:01:00;15.15;;;6.55;;
22904;SDS011;11619;50.140;8.518;2024-02-21T01:03:27;10.70;;;6.22;;
22904;SDS011;11619;50.140;8.518;2024-02-21T01:05:53;13.02;;;6.30;;
22904;SDS011;11619;50.140;8.518;2024-02-21T01:08:20;12.93;;;5.57;;
22904;SDS011;11619;50.140;8.518;2024-02-21T01:10:46;9.80;;;5.85;;
22904;SDS011;11619;50.140;8.518;2024-02-21T01:13:13;12.52;;;6.38;;
22904;SDS011;11619;50.140;8.518;2024-02-21T01:15:40;12.60;;;6.15;;
22904;SDS011;11619;50.140;8.518;2024-02-21T01:18:06;10.57;;;5.70;;
22904;SDS011;11619;50.140;8.518;2024-02-21T01:20:34;13.98;;;6.25;;
22904;SDS011;11619;50.140;8.518;2024-02-21T01:23:01;10.82;;;5.28;;
22904;SDS011;11619;50.140;8.518;2024-02-21T01:25:27;9.95;;;5.00;;
22904;SDS011;11619;50.140;8.518;2024-02-21T01:27:54;12.35;;;5.40;;
22904;SDS011;11619;50.140;8.518;2024-02-21T01:30:20;7.15;;;4.90;;
22904;SDS011;11619;50.140;8.518;2024-02-21T01:32:47;13.10;;;5.40;;
22904;SDS011;11619;50.140;8.518;2024-02-21T01:35:13;14.50;;;6.55;;
22904;SDS011;11619;50.140;8.518;2024-02-21T01:37:40;12.68;;;6.03;;
22904;SDS011;11619;50.140;8.518;2024-02-21T01:40:07;12.95;;;6.47;;
22904;SDS011;11619;50.140;8.518;2024-02-21T01:42:37;21.10;;;6.22;;
22904;SDS011;11619;50.140;8.518;2024-02-21T01:45:04;16.02;;;7.20;;
22904;SDS011;11619;50.140;8.518;2024-02-21T01:47:31;15.38;;;6.35;;
22904;SDS011;11619;50.140;8.518;2024-02-21T01:49:57;14.40;;;7.38;;
22904;SDS011;11619;50.140;8.518;2024-02-21T01:52:24;10.73;;;6.28;;
22904;SDS011;11619;50.140;8.518;2024-02-21T01:54:50;16.83;;;6.07;;
22904;SDS011;11619;50.140;8.518;2024-02-21T01:57:17;11.63;;;5.55;;
22904;SDS011;11619;50.140;8.518;2024-02-21T01:59:44;15.38;;;6.53;;
22904;SDS011;11619;50.140;8.518;2024-02-21T02:02:11;11.73;;;5.43;;
22904;SDS011;11619;50.140;8.518;2024-02-21T02:04:38;11.82;;;5.78;;
22904;SDS011;11619;50.140;8.518;2024-02-21T02:07:05;16.15;;;6.35;;
22904;SDS011;11619;50.140;8.518;2024-02-21T02:09:33;13.77;;;6.65;;
22904;SDS011;11619;50.140;8.518;2024-02-21T02:12:00;11.02;;;5.40;;
22904;SDS011;11619;50.140;8.518;2024-02-21T02:14:27;12.65;;;5.60;;
22904;SDS011;11619;50.140;8.518;2024-02-21T02:16:54;8.13;;;5.25;;
22904;SDS011;11619;50.140;8.518;2024-02-21T02:19:20;12.95;;;6.07;;
22904;SDS011;11619;50.140;8.518;2024-02-21T02:21:49;11.23;;;6.20;;
22904;SDS011;11619;50.140;8.518;2024-02-21T02:24:23;10.68;;;5.65;;
22904;SDS011;11619;50.140;8.518;2024-02-21T02:26:51;11.23;;;5.28;;
22904;SDS011;11619;50.140;8.518;2024-02-21T02:29:18;16.42;;;6.70;;
22904;SDS011;11619;50.140;8.518;2024-02-21T02:31:45;9.05;;;5.38;;
22904;SDS011;11619;50.140;8.518;2024-02-21T02:34:12;14.05;;;6.68;;
22904;SDS011;11619;50.140;8.518;2024-02-21T02:36:38;17.58;;;7.28;;
22904;SDS011;11619;50.140;8.518;2024-02-21T02:39:05;12.05;;;5.97;;
22904;SDS011;11619;50.140;8.518;2024-02-21T02:41:34;13.40;;;6.15;;
22904;SDS011;11619;50.140;8.518;2024-02-21T02:44:02;10.57;;;5.72;;
22904;SDS011;11619;50.140;8.518;2024-02-21T02:46:29;15.63;;;6.57;;
22904;SDS011;11619;50.140;8.518;2024-02-21T02:48:55;11.48;;;5.55;;
22904;SDS011;11619;50.140;8.518;2024-02-21T02:51:22;13.85;;;6.65;;
22904;SDS011;11619;50.140;8.518;2024-02-21T02:53:48;10.45;;;6.60;;
22904;SDS011;11619;50.140;8.518;2024-02-21T02:56:15;13.55;;;6.35;;
22904;SDS011;11619;50.140;8.518;2024-02-21T02:58:43;16.90;;;6.80;;
22904;SDS011;11619;50.140;8.518;2024-02-21T03:01:09;16.90;;;7.35;;
22904;SDS011;11619;50.140;8.518;2024-02-21T03:03:36;13.98;;;7.03;;
22904;SDS011;11619;50.140;8.518;2024-02-21T03:06:03;12.20;;;6.28;;
22904;SDS011;11619;50.140;8.518;2024-02-21T03:08:30;9.73;;;6.18;;
22904;SDS011;11619;50.140;8.518;2024-02-21T03:10:57;9.52;;;6.20;;
22904;SDS011;11619;50.140;8.518;2024-02-21T03:13:23;15.63;;;6.60;;
22904;SDS011;11619;50.140;8.518;2024-02-21T03:15:50;14.77;;;6.63;;
22904;SDS011;11619;50.140;8.518;2024-02-21T03:18:16;10.20;;;6.65;;
22904;SDS011;11619;50.140;8.518;2024-02-21T03:20:43;13.40;;;6.75;;
22904;SDS011;11619;50.140;8.518;2024-02-21T03:23:09;11.15;;;7.00;;
22904;SDS011;11619;50.140;8.518;2024-02-21T03:25:36;17.33;;;7.30;;
22904;SDS011;11619;50.140;8.518;2024-02-21T03:28:02;11.45;;;6.57;;
22904;SDS011;11619;50.140;8.518;2024-02-21T03:30:29;10.18;;;7.10;;
22904;SDS011;11619;50.140;8.518;2024-02-21T03:32:56;11.10;;;7.35;;
22904;SDS011;11619;50.140;8.518;2024-02-21T03:35:22;15.63;;;7.30;;
22904;SDS011;11619;50.140;8.518;2024-02-21T03:37:52;17.52;;;6.40;;
22904;SDS011;11619;50.140;8.518;2024-02-21T03:40:19;17.00;;;7.30;;
22904;SDS011;11619;50.140;8.518;2024-02-21T03:42:46;8.07;;;6.13;;
22904;SDS011;11619;50.140;8.518;2024-02-21T03:45:14;16.40;;;6.63;;
22904;SDS011;11619;50.140;8.518;2024-02-21T03:47:41;15.25;;;6.70;;
22904;SDS011;11619;50.140;8.518;2024-02-21T03:50:08;16.63;;;6.70;;
22904;SDS011;11619;50.140;8.518;2024-02-21T03:52:35;18.45;;;7.85;;
22904;SDS011;11619;50.140;8.518;2024-02-21T03:55:02;17.13;;;6.65;;
22904;SDS011;11619;50.140;8.518;2024-02-21T03:57:28;13.45;;;6.40;;
22904;SDS011;11619;50.140;8.518;2024-02-21T03:59:55;18.65;;;6.75;;
22904;SDS011;11619;50.140;8.518;2024-02-21T04:02:22;15.68;;;6.90;;
22904;SDS011;11619;50.140;8.518;2024-02-21T04:04:48;15.40;;;6.57;;
22904;SDS011;11619;50.140;8.518;2024-02-21T04:07:15;21.83;;;7.30;;
22904;SDS011;11619;50.140;8.518;2024-02-21T04:09:42;13.75;;;7.20;;
22904;SDS011;11619;50.140;8.518;2024-02-21T04:12:08;13.60;;;7.15;;
22904;SDS011;11619;50.140;8.518;2024-02-21T04:14:35;14.40;;;7.13;;
22904;SDS011;11619;50.140;8.518;2024-02-21T04:17:02;17.85;;;7.60;;
22904;SDS011;11619;50.140;8.518;2024-02-21T04:19:29;14.38;;;7.88;;
22904;SDS011;11619;50.140;8.518;2024-02-21T04:21:57;16.17;;;7.57;;
22904;SDS011;11619;50.140;8.518;2024-02-21T04:24:23;22.35;;;8.20;;
22904;SDS011;11619;50.140;8.518;2024-02-21T04:26:50;16.38;;;7.38;;
22904;SDS011;11619;50.140;8.518;2024-02-21T04:29:17;17.00;;;8.05;;
22904;SDS011;11619;50.140;8.518;2024-02-21T04:31:43;15.85;;;8.23;;
22904;SDS011;11619;50.140;8.518;2024-02-21T04:34:10;18.55;;;8.98;;
22904;SDS011;11619;50.140;8.518;2024-02-21T04:36:37;19.20;;;8.57;;
22904;SDS011;11619;50.140;8.518;2024-02-21T04:39:03;18.25;;;9.02;;
22904;SDS011;11619;50.140;8.518;2024-02-21T04:41:30;17.92;;;8.82;;
22904;SDS011;11619;50.140;8.518;2024-02-21T04:43:57;16.63;;;8.90;;
22904;SDS011;11619;50.140;8.518;2024-02-21T04:46:23;21.77;;;8.27;;
22904;SDS011;11619;50.140;8.518;2024-02-21T04:48:50;13.95;;;7.50;;
22904;SDS011;11619;50.140;8.518;2024-02-21T04:51:17;15.55;;;8.20;;
22904;SDS011;11619;50.140;8.518;2024-02-21T04:53:43;13.88;;;7.85;;
22904;SDS011;11619;50.140;8.518;2024-02-21T04:56:10;14.23;;;7.63;;
22904;SDS011;11619;50.140;8.518;2024-02-21T04:58:40;16.10;;;7.80;;
22904;SDS011;11619;50.140;8.518;2024-02-21T05:01:06;14.93;;;7.50;;
22904;SDS011;11619;50.140;8.518;2024-02-21T05:03:34;19.50;;;8.73;;
22904;SDS011;11619;50.140;8.518;2024-02-21T05:06:00;17.45;;;8.57;;
22904;SDS011;11619;50.140;8.518;2024-02-21T05:08:27;13.70;;;8.50;;
22904;SDS011;11619;50.140;8.518;2024-02-21T05:10:53;18.55;;;8.52;;
22904;SDS011;11619;50.140;8.518;2024-02-21T05:13:21;14.50;;;9.05;;
22904;SDS011;11619;50.140;8.518;2024-02-21T05:15:48;18.52;;;9.32;;
22904;SDS011;11619;50.140;8.518;2024-02-21T05:18:23;18.70;;;8.85;;
22904;SDS011;11619;50.140;8.518;2024-02-21T05:20:50;19.85;;;8.82;;
22904;SDS011;11619;50.140;8.518;2024-02-21T05:23:16;19.15;;;7.88;;
22904;SDS011;11619;50.140;8.518;2024-02-21T05:25:43;20.10;;;7.82;;
22904;SDS011;11619;50.140;8.518;2024-02-21T05:28:10;18.23;;;7.60;;
22904;SDS011;11619;50.140;8.518;2024-02-21T05:30:37;17.50;;;7.28;;
22904;SDS011;11619;50.140;8.518;2024-02-21T05:33:07;14.00;;;7.50;;
22904;SDS011;11619;50.140;8.518;2024-02-21T05:35:37;15.50;;;7.85;;
22904;SDS011;11619;50.140;8.518;2024-02-21T05:38:09;18.05;;;7.40;;
22904;SDS011;11619;50.140;8.518;2024-02-21T05:53:07;17.23;;;7.30;;
22904;SDS011;11619;50.140;8.518;2024-02-21T05:55:37;16.13;;;6.80;;
22904;SDS011;11619;50.140;8.518;2024-02-21T05:58:04;20.70;;;7.55;;
22904;SDS011;11619;50.140;8.518;2024-02-21T06:00:32;14.65;;;6.60;;
22904;SDS011;11619;50.140;8.518;2024-02-21T06:02:59;20.02;;;7.05;;
22904;SDS011;11619;50.140;8.518;2024-02-21T06:05:25;14.20;;;7.22;;
22904;SDS011;11619;50.140;8.518;2024-02-21T06:07:52;15.55;;;7.20;;
22904;SDS011;11619;50.140;8.518;2024-02-21T06:10:19;15.73;;;7.63;;
22904;SDS011;11619;50.140;8.518;2024-02-21T06:12:45;19.20;;;7.18;;
22904;SDS011;11619;50.140;8.518;2024-02-21T06:15:11;15.02;;;7.18;;
22904;SDS011;11619;50.140;8.518;2024-02-21T06:17:39;17.92;;;7.55;;
22904;SDS011;11619;50.140;8.518;2024-02-21T06:20:06;17.77;;;8.45;;
22904;SDS011;11619;50.140;8.518;2024-02-21T06:22:34;18.42;;;7.30;;
22904;SDS011;11619;50.140;8.518;2024-02-21T06:25:01;20.42;;;7.80;;
22904;SDS011;11619;50.140;8.518;2024-02-21T06:27:28;11.25;;;7.20;;
22904;SDS011;11619;50.140;8.518;2024-02-21T06:29:54;18.02;;;8.25;;
22904;SDS011;11619;50.140;8.518;2024-02-21T06:32:22;16.02;;;7.88;;
22904;SDS011;11619;50.140;8.518;2024-02-21T06:34:49;17.08;;;8.27;;
22904;SDS011;11619;50.140;8.518;2024-02-21T06:37:15;19.02;;;8.13;;
22904;SDS011;11619;50.140;8.518;2024-02-21T06:39:42;15.57;;;7.85;;
22904;SDS011;11619;50.140;8.518;2024-02-21T06:42:08;16.40;;;8.13;;
22904;SDS011;11619;50.140;8.518;2024-02-21T06:44:35;14.50;;;8.30;;
22904;SDS011;11619;50.140;8.518;2024-02-21T06:47:06;16.10;;;7.95;;
22904;SDS011;11619;50.140;8.518;2024-02-21T06:49:34;15.35;;;7.88;;
22904;SDS011;11619;50.140;8.518;2024-02-21T06:52:03;12.02;;;8.15;;
22904;SDS011;11619;50.140;8.518;2024-02-21T06:54:31;11.45;;;8.35;;
22904;SDS011;11619;50.140;8.518;2024-02-21T06:56:58;15.55;;;8.60;;
22904;SDS011;11619;50.140;8.518;2024-02-21T06:59:25;15.40;;;8.70;;
22904;SDS011;11619;50.140;8.518;2024-02-21T07:01:53;22.20;;;8.90;;
22904;SDS011;11619;50.140;8.518;2024-02-21T07:04:20;13.95;;;7.65;;
22904;SDS011;11619;50.140;8.518;2024-02-21T07:06:47;15.65;;;8.02;;
22904;SDS011;11619;50.140;8.518;2024-02-21T07:09:13;21.10;;;8.20;;
22904;SDS011;11619;50.140;8.518;2024-02-21T07:11:40;13.00;;;7.28;;
22904;SDS011;11619;50.140;8.518;2024-02-21T07:14:07;19.95;;;8.32;;
22904;SDS011;11619;50.140;8.518;2024-02-21T07:16:34;12.50;;;8.25;;
22904;SDS011;11619;50.140;8.518;2024-02-21T07:19:10;15.82;;;8.75;;
22904;SDS011;11619;50.140;8.518;2024-02-21T07:21:36;13.57;;;7.82;;
22904;SDS011;11619;50.140;8.518;2024-02-21T07:24:07;17.52;;;9.50;;
22904;SDS011;11619;50.140;8.518;2024-02-21T07:26:34;16.85;;;8.52;;
22904;SDS011;11619;50.140;8.518;2024-02-21T07:29:01;15.45;;;9.50;;
22904;SDS011;11619;50.140;8.518;2024-02-21T07:31:27;16.42;;;9.05;;
22904;SDS011;11619;50.140;8.518;2024-02-21T07:33:54;13.27;;;9.75;;
22904;SDS011;11619;50.140;8.518;2024-02-21T07:36:29;20.38;;;9.80;;
22904;SDS011;11619;50.140;8.518;2024-02-21T07:38:58;21.65;;;11.60;;
22904;SDS011;11619;50.140;8.518;2024-02-21T07:41:25;20.77;;;11.18;;
22904;SDS011;11619;50.140;8.518;2024-02-21T07:43:52;19.13;;;11.10;;
22904;SDS011;11619;50.140;8.518;2024-02-21T07:46:19;17.90;;;10.90;;
22904;SDS011;11619;50.140;8.518;2024-02-21T07:48:45;17.27;;;11.30;;
22904;SDS011;11619;50.140;8.518;2024-02-21T07:51:12;21.17;;;11.95;;
22904;SDS011;11619;50.140;8.518;2024-02-21T07:53:39;18.30;;;11.70;;
22904;SDS011;11619;50.140;8.518;2024-02-21T07:56:11;16.65;;;11.85;;
22904;SDS011;11619;50.140;8.518;2024-02-21T07:58:41;20.27;;;12.73;;
22904;SDS011;11619;50.140;8.518;2024-02-21T08:01:08;18.15;;;13.05;;
22904;SDS011;11619;50.140;8.518;2024-02-21T08:03:35;17.70;;;12.27;;
22904;SDS011;11619;50.140;8.518;2024-02-21T08:06:02;18.10;;;12.32;;
22904;SDS011;11619;50.140;8.518;2024-02-21T08:08:30;16.67;;;11.43;;
22904;SDS011;11619;50.140;8.518;2024-02-21T08:10:57;16.98;;;12.00;;
22904;SDS011;11619;50.140;8.518;2024-02-21T08:13:24;16.98;;;12.40;;
22904;SDS011;11619;50.140;8.518;2024-02-21T08:15:50;17.45;;;12.07;;
22904;SDS011;11619;50.140;8.518;2024-02-21T08:18:17;18.48;;;13.05;;
22904;SDS011;11619;50.140;8.518;2024-02-21T08:20:43;21.10;;;12.90;;
22904;SDS011;11619;50.140;8.518;2024-02-21T08:23:10;19.40;;;12.52;;
22904;SDS011;11619;50.140;8.518;2024-02-21T08:25:36;18.60;;;12.32;;
22904;SDS011;11619;50.140;8.518;2024-02-21T08:28:03;20.10;;;11.90;;
22904;SDS011;11619;50.140;8.518;2024-02-21T08:30:31;18.42;;;11.32;;
22904;SDS011;11619;50.140;8.518;2024-02-21T08:32:58;15.05;;;11.80;;
22904;SDS011;11619;50.140;8.518;2024-02-21T08:35:27;19.98;;;11.52;;
22904;SDS011;11619;50.140;8.518;2024-02-21T08:37:54;20.83;;;12.57;;
22904;SDS011;11619;50.140;8.518;2024-02-21T08:40:20;23.55;;;11.30;;
22904;SDS011;11619;50.140;8.518;2024-02-21T08:42:48;19.17;;;11.63;;
22904;SDS011;11619;50.140;8.518;2024-02-21T08:45:15;18.48;;;11.55;;
22904;SDS011;11619;50.140;8.518;2024-02-21T08:47:42;20.58;;;10.80;;
22904;SDS011;11619;50.140;8.518;2024-02-21T08:50:09;17.20;;;11.18;;
22904;SDS011;11619;50.140;8.518;2024-02-21T08:52:52;19.90;;;12.02;;
22904;SDS011;11619;50.140;8.518;2024-02-21T08:55:19;16.85;;;11.35;;
22904;SDS011;11619;50.140;8.518;2024-02-21T08:57:45;16.20;;;12.30;;
22904;SDS011;11619;50.140;8.518;2024-02-21T09:00:12;18.27;;;12.75;;
22904;SDS011;11619;50.140;8.518;2024-02-21T09:02:40;23.60;;;14.82;;
22904;SDS011;11619;50.140;8.518;2024-02-21T09:05:07;24.95;;;14.82;;
22904;SDS011;11619;50.140;8.518;2024-02-21T09:07:34;22.48;;;14.00;;
22904;SDS011;11619;50.140;8.518;2024-02-21T09:10:00;20.55;;;13.32;;
22904;SDS011;11619;50.140;8.518;2024-02-21T09:12:27;20.58;;;12.15;;
22904;SDS011;11619;50.140;8.518;2024-02-21T09:14:54;17.13;;;12.30;;
22904;SDS011;11619;50.140;8.518;2024-02-21T09:17:21;21.25;;;12.82;;
22904;SDS011;11619;50.140;8.518;2024-02-21T09:19:47;17.25;;;12.07;;
22904;SDS011;11619;50.140;8.518;2024-02-21T09:22:14;17.85;;;11.07;;
22904;SDS011;11619;50.140;8.518;2024-02-21T09:24:40;18.77;;;11.45;;
22904;SDS011;11619;50.140;8.518;2024-02-21T09:27:07;18.23;;;10.45;;
22904;SDS011;11619;50.140;8.518;2024-02-21T09:29:33;19.75;;;9.27;;
22904;SDS011;11619;50.140;8.518;2024-02-21T09:32:02;17.95;;;8.40;;
22904;SDS011;11619;50.140;8.518;2024-02-21T09:34:29;15.10;;;8.68;;
22904;SDS011;11619;50.140;8.518;2024-02-21T09:36:56;11.98;;;7.03;;
22904;SDS011;11619;50.140;8.518;2024-02-21T09:39:23;14.35;;;7.80;;
22904;SDS011;11619;50.140;8.518;2024-02-21T09:41:50;17.40;;;7.80;;
22904;SDS011;11619;50.140;8.518;2024-02-21T09:44:22;16.60;;;7.03;;
22904;SDS011;11619;50.140;8.518;2024-02-21T09:46:57;12.30;;;7.05;;
22904;SDS011;11619;50.140;8.518;2024-02-21T09:52:00;18.13;;;6.65;;
22904;SDS011;11619;50.140;8.518;2024-02-21T09:54:29;18.10;;;6.97;;
22904;SDS011;11619;50.140;8.518;2024-02-21T09:57:02;12.75;;;6.60;;
22904;SDS011;11619;50.140;8.518;2024-02-21T09:59:30;13.88;;;7.15;;
22904;SDS011;11619;50.140;8.518;2024-02-21T10:01:57;12.48;;;6.18;;
22904;SDS011;11619;50.140;8.518;2024-02-21T10:04:26;12.52;;;6.60;;
22904;SDS011;11619;50.140;8.518;2024-02-21T10:06:54;11.98;;;6.18;;
22904;SDS011;11619;50.140;8.518;2024-02-21T10:09:21;13.60;;;5.93;;
22904;SDS011;11619;50.140;8.518;2024-02-21T10:11:54;12.95;;;6.00;;
22904;SDS011;11619;50.140;8.518;2024-02-21T10:14:33;10.25;;;6.22;;
22904;SDS011;11619;50.140;8.518;2024-02-21T10:17:20;10.40;;;5.38;;
22904;SDS011;11619;50.140;8.518;2024-02-21T10:19:47;11.43;;;5.22;;
22904;SDS011;11619;50.140;8.518;2024-02-21T10:22:13;12.55;;;5.95;;
22904;SDS011;11619;50.140;8.518;2024-02-21T10:24:41;13.40;;;5.80;;
22904;SDS011;11619;50.140;8.518;2024-02-21T10:27:08;12.68;;;5.80;;
22904;SDS011;11619;50.140;8.518;2024-02-21T10:29:40;11.68;;;6.18;;
22904;SDS011;11619;50.140;8.518;2024-02-21T10:32:11;11.57;;;4.82;;
22904;SDS011;11619;50.140;8.518;2024-02-21T10:34:42;11.80;;;4.75;;
22904;SDS011;11619;50.140;8.518;2024-02-21T10:37:10;13.02;;;5.18;;
22904;SDS011;11619;50.140;8.518;2024-02-21T10:39:38;12.45;;;5.28;;
22904;SDS011;11619;50.140;8.518;2024-02-21T10:42:05;9.38;;;4.05;;
22904;SDS011;11619;50.140;8.518;2024-02-21T10:44:32;12.82;;;5.10;;
22904;SDS011;11619;50.140;8.518;2024-02-21T10:47:00;10.13;;;4.28;;
22904;SDS011;11619;50.140;8.518;2024-02-21T10:49:36;11.68;;;4.53;;
22904;SDS011;11619;50.140;8.518;2024-02-21T10:52:13;13.27;;;5.18;;
22904;SDS011;11619;50.140;8.518;2024-02-21T10:54:45;7.95;;;3.97;;
22904;SDS011;11619;50.140;8.518;2024-02-21T10:57:14;12.02;;;4.47;;
22904;SDS011;11619;50.140;8.518;2024-02-21T10:59:40;10.32;;;4.18;;
22904;SDS011;11619;50.140;8.518;2024-02-21T11:02:08;9.52;;;4.57;;
22904;SDS011;11619;50.140;8.518;2024-02-21T11:04:35;7.93;;;4.00;;
22904;SDS011;11619;50.140;8.518;2024-02-21T11:07:05;10.98;;;4.80;;
22904;SDS011;11619;50.140;8.518;2024-02-21T11:09:36;10.90;;;4.03;;
22904;SDS011;11619;50.140;8.518;2024-02-21T11:12:06;9.57;;;4.45;;
22904;SDS011;11619;50.140;8.518;2024-02-21T11:14:33;14.80;;;4.50;;
22904;SDS011;11619;50.140;8.518;2024-02-21T11:17:18;8.48;;;4.10;;
22904;SDS011;11619;50.140;8.518;2024-02-21T11:19:45;8.38;;;4.10;;
22904;SDS011;11619;50.140;8.518;2024-02-21T11:22:19;7.95;;;4.05;;
22904;SDS011;11619;50.140;8.518;2024-02-21T11:24:48;13.65;;;4.38;;
22904;SDS011;11619;50.140;8.518;2024-02-21T11:27:15;11.18;;;4.40;;
22904;SDS011;11619;50.140;8.518;2024-02-21T11:29:46;7.85;;;4.38;;
22904;SDS011;11619;50.140;8.518;2024-02-21T11:32:14;12.75;;;4.82;;
22904;SDS011;11619;50.140;8.518;2024-02-21T11:34:52;13.75;;;4.68;;
22904;SDS011;11619;50.140;8.518;2024-02-21T11:37:21;9.05;;;4.15;;
22904;SDS011;11619;50.140;8.518;2024-02-21T11:39:51;10.80;;;3.83;;
22904;SDS011;11619;50.140;8.518;2024-02-21T11:42:19;13.32;;;4.38;;
22904;SDS011;11619;50.140;8.518;2024-02-21T11:44:46;10.95;;;4.07;;
22904;SDS011;11619;50.140;8.518;2024-02-21T11:47:13;7.93;;;4.00;;
22904;SDS011;11619;50.140;8.518;2024-02-21T11:49:45;9.75;;;3.97;;
22904;SDS011;11619;50.140;8.518;2024-02-21T11:52:12;9.77;;;4.25;;
22904;SDS011;11619;50.140;8.518;2024-02-21T11:54:41;13.20;;;4.07;;
22904;SDS011;11619;50.140;8.518;2024-02-21T11:57:08;7.88;;;3.33;;
22904;SDS011;11619;50.140;8.518;2024-02-21T11:59:35;6.20;;;3.50;;
22904;SDS011;11619;50.140;8.518;2024-02-21T12:02:01;12.23;;;3.90;;
22904;SDS011;11619;50.140;8.518;2024-02-21T12:04:29;9.13;;;3.53;;
22904;SDS011;11619;50.140;8.518;2024-02-21T12:06:57;9.00;;;3.22;;
22904;SDS011;11619;50.140;8.518;2024-02-21T12:09:24;9.75;;;3.95;;
22904;SDS011;11619;50.140;8.518;2024-02-21T12:12:01;13.95;;;3.78;;
22904;SDS011;11619;50.140;8.518;2024-02-21T12:14:30;9.65;;;3.90;;
22904;SDS011;11619;50.140;8.518;2024-02-21T12:16:57;11.45;;;3.65;;
22904;SDS011;11619;50.140;8.518;2024-02-21T12:19:24;10.57;;;3.50;;
22904;SDS011;11619;50.140;8.518;2024-02-21T12:21:51;10.57;;;3.65;;
22904;SDS011;11619;50.140;8.518;2024-02-21T12:24:21;11.13;;;4.20;;
22904;SDS011;11619;50.140;8.518;2024-02-21T12:26:49;10.38;;;4.30;;
22904;SDS011;11619;50.140;8.518;2024-02-21T12:29:19;8.27;;;3.63;;
22904;SDS011;11619;50.140;8.518;2024-02-21T12:31:45;9.50;;;3.72;;
22904;SDS011;11619;50.140;8.518;2024-02-21T12:34:13;9.52;;;3.40;;
22904;SDS011;11619;50.140;8.518;2024-02-21T12:36:41;7.25;;;3.20;;
22904;SDS011;11619;50.140;8.518;2024-02-21T12:39:12;8.82;;;3.65;;
22904;SDS011;11619;50.140;8.518;2024-02-21T12:41:38;9.38;;;3.65;;
22904;SDS011;11619;50.140;8.518;2024-02-21T12:44:10;12.43;;;4.18;;
22904;SDS011;11619;50.140;8.518;2024-02-21T12:46:38;12.32;;;4.28;;
22904;SDS011;11619;50.140;8.518;2024-02-21T12:49:06;8.18;;;3.92;;
22904;SDS011;11619;50.140;8.518;2024-02-21T12:51:34;8.07;;;3.70;;
22904;SDS011;11619;50.140;8.518;2024-02-21T12:54:01;10.63;;;3.45;;
22904;SDS011;11619;50.140;8.518;2024-02-21T12:56:29;7.47;;;3.40;;
22904;SDS011;11619;50.140;8.518;2024-02-21T12:58:57;9.57;;;3.65;;
22904;SDS011;11619;50.140;8.518;2024-02-21T13:01:24;8.18;;;3.60;;
22904;SDS011;11619;50.140;8.518;2024-02-21T13:03:50;13.38;;;3.95;;
22904;SDS011;11619;50.140;8.518;2024-02-21T13:06:20;9.93;;;4.13;;
22904;SDS011;11619;50.140;8.518;2024-02-21T13:08:53;7.35;;;3.20;;
22904;SDS011;11619;50.140;8.518;2024-02-21T13:11:22;9.23;;;4.05;;
22904;SDS011;11619;50.140;8.518;2024-02-21T13:13:55;10.73;;;4.00;;
22904;SDS011;11619;50.140;8.518;2024-02-21T13:16:21;8.88;;;3.65;;
22904;SDS011;11619;50.140;8.518;2024-02-21T13:18:59;10.02;;;3.42;;
22904;SDS011;11619;50.140;8.518;2024-02-21T13:21:26;8.02;;;3.60;;
22904;SDS011;11619;50.140;8.518;2024-02-21T13:23:52;11.60;;;4.50;;
22904;SDS011;11619;50.140;8.518;2024-02-21T13:26:19;8.73;;;3.60;;
22904;SDS011;11619;50.140;8.518;2024-02-21T13:28:46;12.13;;;4.72;;
22904;SDS011;11619;50.140;8.518;2024-02-21T13:31:14;9.73;;;3.70;;
22904;SDS011;11619;50.140;8.518;2024-02-21T13:33:42;10.25;;;3.90;;
22904;SDS011;11619;50.140;8.518;2024-02-21T13:36:10;9.63;;;3.55;;
22904;SDS011;11619;50.140;8.518;2024-02-21T13:38:37;15.75;;;4.30;;
22904;SDS011;11619;50.140;8.518;2024-02-21T13:41:05;11.80;;;3.70;;
22904;SDS011;11619;50.140;8.518;2024-02-21T13:43:33;8.63;;;3.60;;
22904;SDS011;11619;50.140;8.518;2024-02-21T13:46:01;6.97;;;3.08;;
22904;SDS011;11619;50.140;8.518;2024-02-21T13:48:39;8.52;;;2.80;;
22904;SDS011;11619;50.140;8.518;2024-02-21T13:51:06;9.68;;;3.83;;
22904;SDS011;11619;50.140;8.518;2024-02-21T13:53:35;7.03;;;3.35;;
22904;SDS011;11619;50.140;8.518;2024-02-21T13:56:02;9.25;;;3.40;;
22904;SDS011;11619;50.140;8.518;2024-02-21T13:58:28;7.47;;;3.60;;
22904;SDS011;11619;50.140;8.518;2024-02-21T14:00:55;8.85;;;3.00;;
22904;SDS011;11619;50.140;8.518;2024-02-21T14:03:23;10.10;;;3.67;;
22904;SDS011;11619;50.140;8.518;2024-02-21T14:06:10;14.27;;;3.78;;
22904;SDS011;11619;50.140;8.518;2024-02-21T14:08:43;6.60;;;3.08;;
22904;SDS011;11619;50.140;8.518;2024-02-21T14:11:10;9.93;;;3.20;;
22904;SDS011;11619;50.140;8.518;2024-02-21T14:13:36;9.30;;;3.50;;
22904;SDS011;11619;50.140;8.518;2024-02-21T14:16:08;10.43;;;3.28;;
22904;SDS011;11619;50.140;8.518;2024-02-21T14:18:37;8.35;;;3.28;;
22904;SDS011;11619;50.140;8.518;2024-02-21T14:21:04;12.52;;;3.67;;
22904;SDS011;11619;50.140;8.518;2024-02-21T14:23:31;8.05;;;3.05;;
22904;SDS011;11619;50.140;8.518;2024-02-21T14:25:59;10.13;;;3.15;;
22904;SDS011;11619;50.140;8.518;2024-02-21T14:28:29;10.48;;;3.22;;
22904;SDS011;11619;50.140;8.518;2024-02-21T14:31:00;5.90;;;2.97;;
22904;SDS011;11619;50.140;8.518;2024-02-21T14:33:30;10.20;;;2.85;;
22904;SDS011;11619;50.140;8.518;2024-02-21T14:35:57;11.00;;;3.58;;
22904;SDS011;11619;50.140;8.518;2024-02-21T14:38:24;9.15;;;2.90;;
22904;SDS011;11619;50.140;8.518;2024-02-21T14:40:50;7.85;;;3.03;;
22904;SDS011;11619;50.140;8.518;2024-02-21T14:43:17;8.25;;;3.10;;
22904;SDS011;11619;50.140;8.518;2024-02-21T14:45:43;9.90;;;2.88;;
22904;SDS011;11619;50.140;8.518;2024-02-21T14:48:13;7.30;;;3.78;;
22904;SDS011;11619;50.140;8.518;2024-02-21T14:50:40;9.55;;;3.13;;
22904;SDS011;11619;50.140;8.518;2024-02-21T14:53:08;9.60;;;4.00;;
22904;SDS011;11619;50.140;8.518;2024-02-21T14:55:35;9.15;;;3.78;;